Aérodrome :
LOGIN :

S'inscrire | Disclaimer

   EN    FR    IT 

 










Légende :    VFR   VFR Marginal   IFR   IFR Intensif   IFR Très Intensif
Visi : 
Plafond : 
>= 8 km
>= 3000ft
5 à 8 km
1000 à 3000 ft
1500m à 5 km
500 à 1000 ft
800 à 1500m
200 à 500 ft
< 800m
< 200 ft
Symboles :   Orages  Brouillard  Fortes neiges  Fortes précipitations  Vent > 20 kt
SIGMETs :   Divers  Orages  Givrage  Turbulence  Onde Orograph.  Cendres Volcan.






- Altitude de l'aérodrome : 375 ft
- Code IATA : MST


EHBK - Maastricht Aachen

DERNIER METAR :
  • 160725Z AUTO 02005KT 340V060 9999 NSC 03/M00 Q1028 NOSIG

METARs EXPIRÉS :
  • 160655Z AUTO 04003KT 340V060 9999 NSC 03/M01 Q1028 NOSIG
  • 160625Z AUTO 03005KT 9999 NSC 02/M01 Q1028 NOSIG
  • 160555Z AUTO 04004KT 9999 NSC 01/M01 Q1028 NOSIG
  • 160525Z AUTO 04005KT 9999 NSC 01/M02 Q1028 NOSIG
  • 160455Z AUTO 03006KT 9999 NSC 00/M02 Q1027 NOSIG

TAF TAF EHBK
Valide du 16 à 06h jusqu'au 17 à 12h UTC


160517Z 1606/1712 03007KT CAVOK



MET'MAP, la Météo Aéronautique d'un coup d'oeil ! - Copyright ORBIFLY Décembre 2007 - Disclaimer

ORBIFLY MET'MAP TEAM :

Programmation & Développement : Alexandra Zaïnal
Sur une idée originale de : Baudouin d'Aumeries
Assistance à la programmation : Marc-Olivier Méhu
Soutien technique & logistique : Manuel Goepfert

Contact : metmap@orbifly.com




SOURCES & CREDITS :

   NOAA